Time;durP1;ratioP1;P1;durP2;ratioP2;P2;SDS_P1;SDS_P2;PMS_P1;PMS_P2;Temp;Humidity;BMP_temperature;BMP_pressure;BME280_temperature;BME280_humidity;BME280_pressure;Samples;Min_cycle;Max_cycle;Signal;HPM_P1;HPM_P2
2023/12/28 00:02:00;;;;;;;9.10;3.20;;;;;;;5.36;56.38;101701.60;108250;1286;21998;-60
2023/12/28 00:04:27;;;;;;;8.30;3.30;;;;;;;5.38;56.31;101700.99;108203;1280;21999;-59
2023/12/28 00:06:53;;;;;;;6.40;3.00;;;;;;;5.39;56.11;101704.67;108168;1286;21994;-60
2023/12/28 00:09:19;;;;;;;7.00;3.40;;;;;;;5.40;55.91;101705.05;108177;1277;21989;-59
2023/12/28 00:11:44;;;;;;;6.00;2.60;;;;;;;5.40;55.68;101702.80;108188;1286;22001;-59
2023/12/28 00:14:10;;;;;;;6.50;3.30;;;;;;;5.40;55.86;101702.96;108162;1286;22006;-60
2023/12/28 00:16:37;;;;;;;6.40;3.20;;;;;;;5.40;56.03;101701.55;108173;1276;21996;-59
2023/12/28 00:19:04;;;;;;;7.70;3.50;;;;;;;5.40;55.90;101698.60;108125;1280;21987;-61
2023/12/28 00:21:30;;;;;;;7.50;3.90;;;;;;;5.42;56.17;101697.98;108144;1286;22032;-59
2023/12/28 00:23:56;;;;;;;6.50;3.00;;;;;;;5.44;56.64;101702.90;108167;1276;22027;-61
2023/12/28 00:26:21;;;;;;;5.70;3.20;;;;;;;5.45;56.51;101700.33;108205;1286;21989;-60
2023/12/28 00:28:47;;;;;;;7.80;3.70;;;;;;;5.46;56.40;101696.02;108139;1286;22111;-59
2023/12/28 00:31:13;;;;;;;6.50;3.50;;;;;;;5.47;56.38;101697.45;107384;1275;1002354;-59
2023/12/28 00:33:38;;;;;;;6.10;3.30;;;;;;;5.48;56.54;101698.86;107408;1286;1002565;-61
2023/12/28 00:36:04;;;;;;;6.30;3.40;;;;;;;5.48;56.56;101702.00;108168;1286;22042;-59
2023/12/28 00:38:30;;;;;;;7.60;3.30;;;;;;;5.50;56.65;101698.73;108173;1279;21991;-60
2023/12/28 00:40:55;;;;;;;7.50;3.30;;;;;;;5.51;56.78;101699.46;108146;1280;22105;-61
2023/12/28 00:43:21;;;;;;;7.30;3.40;;;;;;;5.52;56.53;101698.62;108179;1279;21993;-60
2023/12/28 00:45:47;;;;;;;7.30;3.50;;;;;;;5.53;56.58;101695.85;107473;1279;1002527;-60
2023/12/28 00:48:12;;;;;;;7.30;3.90;;;;;;;5.54;56.46;101695.70;107431;1286;1002318;-61
2023/12/28 00:50:38;;;;;;;6.70;3.70;;;;;;;5.55;56.37;101695.04;108214;1279;22086;-59
2023/12/28 00:53:04;;;;;;;8.90;3.70;;;;;;;5.55;56.07;101695.73;108136;1286;21993;-60
2023/12/28 00:55:29;;;;;;;8.50;3.70;;;;;;;5.56;56.17;101691.41;108201;1286;21995;-60
2023/12/28 00:57:55;;;;;;;7.20;3.50;;;;;;;5.57;56.19;101691.44;108153;1276;22007;-60
2023/12/28 01:00:21;;;;;;;7.30;4.10;;;;;;;5.58;56.35;101694.61;108198;1286;22009;-59
2023/12/28 01:02:47;;;;;;;9.30;3.60;;;;;;;5.59;56.20;101690.46;107487;1279;1002675;-60
2023/12/28 01:05:13;;;;;;;9.00;4.10;;;;;;;5.57;56.16;101690.58;108283;1277;21990;-61
2023/12/28 01:07:39;;;;;;;9.90;3.90;;;;;;;5.54;56.24;101691.35;107398;1286;1003862;-60
2023/12/28 01:10:05;;;;;;;8.50;4.00;;;;;;;5.50;55.96;101691.61;108127;1286;22453;-59
2023/12/28 01:12:31;;;;;;;9.30;4.20;;;;;;;5.48;56.00;101695.56;108134;1286;22034;-60
2023/12/28 01:14:59;;;;;;;7.60;3.60;;;;;;;5.47;55.94;101692.56;108139;1279;22007;-59
2023/12/28 01:17:24;;;;;;;7.00;3.50;;;;;;;5.47;55.84;101690.64;108151;1279;21985;-59
2023/12/28 01:19:50;;;;;;;7.00;3.90;;;;;;;5.47;56.07;101690.81;108135;1286;22028;-60
2023/12/28 01:22:15;;;;;;;8.50;3.40;;;;;;;5.46;56.34;101690.77;108157;1286;21994;-59
2023/12/28 01:24:41;;;;;;;9.40;4.10;;;;;;;5.46;56.35;101686.80;108164;1286;22001;-59
2023/12/28 01:27:06;;;;;;;6.80;3.70;;;;;;;5.47;56.40;101680.02;108141;1286;22007;-60
2023/12/28 01:29:33;;;;;;;6.90;3.50;;;;;;;5.46;56.26;101675.83;108108;1286;21998;-59
2023/12/28 01:31:59;;;;;;;9.30;3.70;;;;;;;5.46;56.14;101673.73;108122;1286;22001;-59
2023/12/28 01:34:25;;;;;;;10.20;4.20;;;;;;;5.46;56.27;101674.41;108130;1279;22005;-60
2023/12/28 01:36:50;;;;;;;9.10;3.90;;;;;;;5.45;56.65;101679.07;108120;1280;22105;-60
2023/12/28 01:39:18;;;;;;;8.10;4.30;;;;;;;5.46;56.95;101679.66;108161;1286;21996;-60
2023/12/28 01:41:44;;;;;;;7.60;3.80;;;;;;;5.51;56.90;101680.83;108208;1276;21995;-59
2023/12/28 01:44:09;;;;;;;6.80;4.00;;;;;;;5.55;56.57;101678.48;107480;1286;1002637;-60
2023/12/28 01:46:35;;;;;;;10.40;3.90;;;;;;;5.54;56.30;101682.48;107383;1286;1002287;-59
2023/12/28 01:49:01;;;;;;;8.10;4.00;;;;;;;5.49;56.07;101677.99;108133;1286;22001;-60
2023/12/28 01:51:26;;;;;;;5.80;3.40;;;;;;;5.44;55.90;101676.27;108232;1285;21997;-60
2023/12/28 01:53:52;;;;;;;6.60;3.40;;;;;;;5.40;55.87;101673.54;108087;1285;22027;-60
2023/12/28 01:56:18;;;;;;;7.90;3.90;;;;;;;5.38;55.81;101675.20;108096;1280;21990;-60
2023/12/28 01:58:44;;;;;;;8.90;3.60;;;;;;;5.35;56.03;101672.88;108089;1285;22454;-59
2023/12/28 02:01:10;;;;;;;7.90;4.50;;;;;;;5.34;56.22;101671.27;108165;1285;21991;-61
2023/12/28 02:03:36;;;;;;;9.00;3.90;;;;;;;5.28;56.24;101677.18;108245;1276;22021;-60
2023/12/28 02:06:01;;;;;;;7.90;4.50;;;;;;;5.19;56.34;101676.92;108183;1285;21997;-60
2023/12/28 02:08:27;;;;;;;8.10;3.80;;;;;;;5.14;56.45;101676.77;108211;1283;22027;-60
2023/12/28 02:10:54;;;;;;;8.60;4.00;;;;;;;5.12;56.37;101679.64;108300;1279;22000;-59
2023/12/28 02:13:20;;;;;;;9.50;4.10;;;;;;;5.13;56.41;101686.13;107466;1285;1002303;-60
2023/12/28 02:15:46;;;;;;;7.20;3.80;;;;;;;5.14;56.55;101694.15;108107;1280;22009;-59
2023/12/28 02:18:13;;;;;;;7.30;4.20;;;;;;;5.13;56.92;101696.39;108132;1280;22006;-60
2023/12/28 02:20:39;;;;;;;7.40;3.70;;;;;;;5.12;56.73;101697.58;107606;1279;1002445;-59
2023/12/28 02:23:05;;;;;;;10.30;4.70;;;;;;;5.11;56.56;101699.46;108152;1285;22030;-61
2023/12/28 02:25:31;;;;;;;7.70;3.90;;;;;;;5.11;56.21;101704.85;108119;1280;21995;-59
2023/12/28 02:27:57;;;;;;;7.40;3.70;;;;;;;5.11;56.40;101706.93;108066;1285;22053;-59
2023/12/28 02:30:23;;;;;;;10.40;3.90;;;;;;;5.11;56.33;101708.69;108089;1283;24178;-60
2023/12/28 02:32:48;;;;;;;8.90;4.10;;;;;;;5.10;56.23;101715.60;108115;1277;22015;-61
2023/12/28 02:35:18;;;;;;;12.40;4.10;;;;;;;5.08;56.09;101723.55;108196;1285;22025;-61
2023/12/28 02:37:44;;;;;;;10.20;4.10;;;;;;;5.00;56.24;101733.93;107488;1285;1003118;-60
2023/12/28 02:40:10;;;;;;;7.60;3.90;;;;;;;4.91;56.38;101734.31;108177;1277;21988;-60
2023/12/28 02:42:36;;;;;;;6.80;3.40;;;;;;;4.82;55.96;101736.30;108215;1285;24385;-60
2023/12/28 02:45:02;;;;;;;9.40;3.60;;;;;;;4.75;55.85;101735.00;108109;1286;22043;-59
2023/12/28 02:47:27;;;;;;;6.70;3.40;;;;;;;4.68;55.94;101732.68;108129;1286;22094;-60
2023/12/28 02:49:53;;;;;;;8.40;3.90;;;;;;;4.61;55.96;101734.72;108145;1286;22039;-60
2023/12/28 02:52:19;;;;;;;6.50;3.60;;;;;;;4.53;55.76;101736.89;108122;1285;21994;-61
2023/12/28 02:54:44;;;;;;;8.70;4.00;;;;;;;4.44;55.44;101738.84;108107;1276;22134;-59
2023/12/28 02:57:10;;;;;;;6.50;3.40;;;;;;;4.37;55.65;101739.13;108142;1285;21997;-60
2023/12/28 02:59:35;;;;;;;8.90;4.00;;;;;;;4.33;55.83;101738.11;108088;1285;22165;-60
2023/12/28 03:02:01;;;;;;;8.40;4.00;;;;;;;4.29;56.07;101737.11;107323;1283;1002232;-59
2023/12/28 03:04:26;;;;;;;6.20;3.70;;;;;;;4.26;56.21;101737.50;108060;1283;21992;-58
2023/12/28 03:06:52;;;;;;;9.60;3.70;;;;;;;4.23;56.20;101737.23;108086;1283;22006;-58
2023/12/28 03:09:17;;;;;;;8.70;3.90;;;;;;;4.21;56.16;101738.21;108095;1278;22763;-59
2023/12/28 03:11:43;;;;;;;8.10;4.00;;;;;;;4.20;56.27;101741.10;108120;1279;21994;-60
2023/12/28 03:14:08;;;;;;;8.40;4.30;;;;;;;4.21;56.28;101738.74;108082;1285;24463;-59
2023/12/28 03:16:34;;;;;;;8.70;4.70;;;;;;;4.23;56.21;101735.17;108184;1277;22196;-61
2023/12/28 03:19:00;;;;;;;6.90;4.10;;;;;;;4.17;56.35;101732.17;108071;1280;21992;-61
2023/12/28 03:21:25;;;;;;;9.80;4.30;;;;;;;4.10;56.13;101733.30;108082;1285;22117;-59
2023/12/28 03:23:51;;;;;;;8.90;4.10;;;;;;;3.97;56.96;101732.48;108065;1283;22041;-59
2023/12/28 03:26:16;;;;;;;10.60;4.20;;;;;;;3.93;56.83;101743.13;107400;1282;1003251;-59
2023/12/28 03:28:42;;;;;;;9.60;4.30;;;;;;;3.93;57.39;101743.64;107342;1283;1002949;-61
2023/12/28 03:31:07;;;;;;;9.60;4.50;;;;;;;3.95;57.71;101745.11;108043;1285;21997;-59
2023/12/28 03:33:33;;;;;;;9.70;4.60;;;;;;;3.97;57.84;101742.22;108119;1276;22123;-60
2023/12/28 03:35:58;;;;;;;10.20;4.70;;;;;;;3.98;57.84;101737.05;108056;1285;21997;-59
2023/12/28 03:38:24;;;;;;;8.70;5.00;;;;;;;4.01;57.62;101739.77;108180;1285;21994;-59
2023/12/28 03:40:50;;;;;;;9.10;4.60;;;;;;;4.02;57.76;101744.83;108088;1278;22015;-61
2023/12/28 03:43:15;;;;;;;7.10;3.80;;;;;;;4.03;57.61;101746.96;108119;1279;21990;-60
2023/12/28 03:45:41;;;;;;;9.20;4.50;;;;;;;4.04;57.84;101749.77;108079;1285;22000;-61
2023/12/28 03:48:06;;;;;;;9.00;4.10;;;;;;;4.03;57.71;101747.48;108064;1274;22460;-59
2023/12/28 03:50:32;;;;;;;8.30;3.80;;;;;;;4.04;57.65;101742.11;108130;1284;22034;-59
2023/12/28 03:52:58;;;;;;;7.80;4.00;;;;;;;4.06;57.60;101735.08;108132;1285;22122;-59
2023/12/28 03:55:24;;;;;;;7.60;3.90;;;;;;;4.09;57.46;101727.73;108096;1285;21992;-59
2023/12/28 03:57:51;;;;;;;10.00;4.20;;;;;;;4.11;57.37;101729.34;108094;1276;22000;-60
2023/12/28 04:00:17;;;;;;;10.60;5.50;;;;;;;4.11;57.34;101728.13;108060;1279;22177;-60
2023/12/28 04:02:42;;;;;;;7.70;4.20;;;;;;;4.10;57.29;101731.73;108192;1279;22097;-61
2023/12/28 04:05:08;;;;;;;6.80;4.00;;;;;;;4.07;57.32;101740.48;108070;1285;21993;-60
2023/12/28 04:07:33;;;;;;;7.00;3.30;;;;;;;4.02;57.19;101746.02;108071;1285;21989;-60
2023/12/28 04:09:59;;;;;;;7.70;3.40;;;;;;;3.99;57.23;101750.44;108084;1285;22039;-60
2023/12/28 04:12:24;;;;;;;5.40;3.40;;;;;;;3.97;57.26;101752.80;108047;1285;22048;-60
2023/12/28 04:14:50;;;;;;;7.90;3.50;;;;;;;3.94;57.17;101754.60;108082;1276;22001;-60
2023/12/28 04:17:16;;;;;;;6.10;3.50;;;;;;;3.91;57.18;101749.13;108090;1285;22455;-59
2023/12/28 04:19:41;;;;;;;8.20;3.80;;;;;;;3.89;57.15;101747.30;108077;1285;21999;-60
2023/12/28 04:22:07;;;;;;;8.70;3.30;;;;;;;3.86;57.03;101750.67;108074;1285;22466;-59
2023/12/28 04:24:32;;;;;;;6.40;3.50;;;;;;;3.83;57.11;101750.02;107350;1280;1002581;-59
2023/12/28 04:26:58;;;;;;;9.20;4.30;;;;;;;3.78;57.33;101752.10;108144;1280;21998;-60
2023/12/28 04:29:24;;;;;;;5.10;3.20;;;;;;;3.77;57.29;101755.02;108136;1285;21980;-60
2023/12/28 04:31:49;;;;;;;6.10;3.20;;;;;;;3.78;57.26;101753.69;108077;1274;21990;-61
2023/12/28 04:34:15;;;;;;;6.30;3.10;;;;;;;3.81;57.45;101752.73;108098;1285;22001;-61
2023/12/28 04:36:45;;;;;;;11.20;3.40;;;;;;;3.83;57.72;101752.14;108083;1283;22001;-60
2023/12/28 04:39:10;;;;;;;6.90;2.90;;;;;;;3.87;57.72;101754.54;108115;1285;22022;-60
2023/12/28 04:41:36;;;;;;;6.30;2.90;;;;;;;3.90;57.60;101751.35;108164;1285;22041;-61
2023/12/28 04:44:02;;;;;;;8.10;3.00;;;;;;;3.90;57.40;101749.09;108145;1276;22003;-59
2023/12/28 04:46:28;;;;;;;6.80;3.20;;;;;;;3.86;57.32;101743.21;108252;1283;22004;-60
2023/12/28 04:48:53;;;;;;;6.80;2.90;;;;;;;3.84;57.36;101732.54;108307;1285;21996;-58
2023/12/28 04:51:19;;;;;;;6.70;2.80;;;;;;;3.85;57.43;101722.50;108294;1280;22119;-60
2023/12/28 04:53:44;;;;;;;6.10;3.00;;;;;;;3.87;57.50;101721.18;108086;1281;22030;-60
2023/12/28 04:56:10;;;;;;;6.10;2.50;;;;;;;3.89;57.44;101721.42;108096;1278;23150;-59
2023/12/28 04:58:35;;;;;;;6.50;2.40;;;;;;;3.91;57.46;101720.48;108170;1284;21992;-59
2023/12/28 05:01:02;;;;;;;5.40;2.30;;;;;;;3.93;57.34;101716.72;108311;1276;21989;-61
2023/12/28 05:03:28;;;;;;;5.70;2.40;;;;;;;3.94;57.07;101704.95;107511;1286;1002903;-60
2023/12/28 05:05:54;;;;;;;6.40;2.40;;;;;;;3.93;57.02;101697.98;108134;1286;21996;-59
2023/12/28 05:08:19;;;;;;;5.90;3.00;;;;;;;3.92;57.29;101703.33;108158;1285;21991;-59
2023/12/28 05:10:48;;;;;;;6.50;2.70;;;;;;;3.93;57.29;101705.63;108278;1285;22032;-60
2023/12/28 05:13:13;;;;;;;4.60;2.30;;;;;;;3.94;57.14;101703.40;108125;1279;21990;-61
2023/12/28 05:15:39;;;;;;;5.40;2.60;;;;;;;3.94;57.14;101704.42;108186;1285;21992;-62
2023/12/28 05:18:07;;;;;;;8.90;2.90;;;;;;;3.94;57.04;101708.44;108192;1284;23645;-60
2023/12/28 05:20:32;;;;;;;5.80;2.30;;;;;;;3.96;57.19;101719.96;108204;1280;21993;-59
2023/12/28 05:22:58;;;;;;;6.40;3.10;;;;;;;3.98;57.23;101728.55;107989;1285;21990;-61
2023/12/28 05:25:24;;;;;;;8.70;2.20;;;;;;;4.00;57.16;101733.80;108074;1285;22000;-60
2023/12/28 05:27:49;;;;;;;6.70;2.30;;;;;;;4.00;57.20;101745.80;108124;1285;21992;-61
2023/12/28 05:30:15;;;;;;;4.90;2.20;;;;;;;3.99;57.43;101748.20;108129;1285;22003;-60
2023/12/28 05:32:40;;;;;;;5.90;2.20;;;;;;;4.00;57.77;101742.84;108075;1285;22037;-59
2023/12/28 05:35:06;;;;;;;5.90;2.40;;;;;;;4.03;57.99;101737.75;108131;1281;22008;-60
2023/12/28 05:37:32;;;;;;;6.80;2.00;;;;;;;4.06;57.88;101730.39;108076;1274;22102;-59
2023/12/28 05:39:57;;;;;;;5.20;3.00;;;;;;;4.09;57.87;101728.08;108064;1278;21990;-58
2023/12/28 05:42:23;;;;;;;5.00;2.40;;;;;;;4.13;58.05;101718.30;108057;1277;21998;-59
2023/12/28 05:44:48;;;;;;;4.40;1.90;;;;;;;4.20;58.11;101715.92;108110;1285;22031;-59
2023/12/28 05:47:14;;;;;;;4.90;1.90;;;;;;;4.26;58.20;101720.84;108064;1279;21990;-60
2023/12/28 05:49:40;;;;;;;6.40;3.10;;;;;;;4.34;58.47;101722.15;108077;1285;22034;-59
2023/12/28 05:52:05;;;;;;;5.20;2.90;;;;;;;4.39;58.95;101716.77;108080;1280;22003;-59
2023/12/28 05:54:31;;;;;;;6.10;2.40;;;;;;;4.47;59.23;101711.45;108095;1285;21986;-59
2023/12/28 05:56:56;;;;;;;5.10;2.20;;;;;;;4.54;59.02;101708.56;108093;1285;21995;-59
2023/12/28 05:59:22;;;;;;;6.50;2.30;;;;;;;4.62;58.77;101709.39;108158;1285;23144;-60
2023/12/28 06:01:48;;;;;;;6.00;2.50;;;;;;;4.68;58.99;101714.26;108197;1281;21987;-60
2023/12/28 06:04:13;;;;;;;5.90;2.60;;;;;;;4.75;59.22;101723.17;108072;1285;22007;-60
2023/12/28 06:06:39;;;;;;;5.00;2.30;;;;;;;4.85;59.25;101734.80;108097;1284;21997;-59
2023/12/28 06:09:05;;;;;;;7.00;2.50;;;;;;;4.97;59.22;101732.60;108092;1280;22008;-60
2023/12/28 06:11:30;;;;;;;7.20;2.50;;;;;;;5.09;58.88;101722.02;108179;1285;21988;-60
2023/12/28 06:13:56;;;;;;;7.70;2.20;;;;;;;5.22;58.82;101709.73;108084;1285;21990;-61
2023/12/28 06:16:22;;;;;;;4.60;2.30;;;;;;;5.33;58.78;101713.55;108118;1287;21989;-60
2023/12/28 06:18:48;;;;;;;7.70;2.50;;;;;;;5.43;58.64;101724.11;108119;1277;22004;-61
2023/12/28 06:21:14;;;;;;;6.90;2.40;;;;;;;5.48;58.31;101732.09;107796;1284;21996;-60
2023/12/28 06:23:40;;;;;;;4.70;2.60;;;;;;;5.52;58.20;101740.05;108063;1287;21984;-60
2023/12/28 06:26:06;;;;;;;4.50;2.40;;;;;;;5.52;58.05;101740.23;108152;1287;21994;-60
2023/12/28 06:28:32;;;;;;;5.60;2.90;;;;;;;5.48;57.98;101739.08;107400;1280;1002806;-61
2023/12/28 06:31:00;;;;;;;5.40;2.40;;;;;;;5.45;57.71;101746.63;108099;1287;22054;-59
2023/12/28 06:33:29;;;;;;;6.80;2.60;;;;;;;5.42;57.51;101744.98;108136;1287;21997;-60
2023/12/28 06:35:54;;;;;;;3.80;2.20;;;;;;;5.39;57.75;101740.69;108097;1277;22015;-60
2023/12/28 06:38:20;;;;;;;6.40;2.50;;;;;;;5.38;57.86;101738.58;108070;1286;21996;-60
2023/12/28 06:40:46;;;;;;;6.60;2.50;;;;;;;5.41;57.90;101744.60;108155;1287;22028;-60
2023/12/28 06:43:11;;;;;;;5.20;2.70;;;;;;;5.45;57.95;101751.69;108191;1276;21992;-59
2023/12/28 06:45:37;;;;;;;4.70;3.00;;;;;;;5.49;57.90;101751.63;108135;1286;21994;-60
2023/12/28 06:48:03;;;;;;;7.90;2.90;;;;;;;5.51;57.81;101746.46;108044;1287;21986;-60
2023/12/28 06:50:29;;;;;;;9.40;3.00;;;;;;;5.53;57.80;101742.16;108130;1287;21999;-61
2023/12/28 06:52:54;;;;;;;7.40;3.10;;;;;;;5.58;58.13;101739.18;108101;1287;22008;-60
2023/12/28 06:55:20;;;;;;;9.40;2.60;;;;;;;5.65;58.15;101740.10;108134;1287;21992;-61
2023/12/28 06:57:45;;;;;;;6.40;2.80;;;;;;;5.72;58.33;101748.50;107402;1277;1002028;-60
2023/12/28 07:00:12;;;;;;;4.70;2.30;;;;;;;5.82;58.61;101753.64;108135;1281;21988;-60
2023/12/28 07:02:38;;;;;;;6.60;3.00;;;;;;;5.91;58.66;101760.54;107418;1287;1002673;-60
2023/12/28 07:05:04;;;;;;;8.20;3.30;;;;;;;6.00;58.90;101765.88;108103;1276;21992;-60
2023/12/28 07:20:35;;;;;;;7.20;3.40;;;;;;;2.95;89.01;101770.20;107277;1281;1002573;-61
2023/12/28 07:23:25;;;;;;;4.40;2.20;;;;;;;5.78;68.97;101761.19;108406;1281;21979;-59
2023/12/28 07:25:51;;;;;;;4.20;2.00;;;;;;;6.17;65.01;101745.77;108375;1284;22011;-60
2023/12/28 07:28:16;;;;;;;7.20;2.10;;;;;;;6.39;63.99;101742.03;108361;1284;21983;-59
2023/12/28 07:30:42;;;;;;;8.00;2.10;;;;;;;6.60;63.27;101746.58;108363;1284;21980;-59
2023/12/28 07:33:08;;;;;;;4.90;2.40;;;;;;;6.79;63.06;101742.35;107515;1281;1002516;-59
2023/12/28 07:35:33;;;;;;;5.70;2.30;;;;;;;6.97;62.80;101744.03;107702;1281;1002501;-58
2023/12/28 07:37:59;;;;;;;4.50;2.20;;;;;;;7.14;62.44;101747.73;108469;1281;22039;-60
2023/12/28 07:40:24;;;;;;;3.50;2.20;;;;;;;7.27;62.14;101744.20;107725;1281;1002303;-62
2023/12/28 07:42:50;;;;;;;3.50;1.90;;;;;;;7.38;61.53;101748.45;108464;1274;21979;-60
2023/12/28 07:45:17;;;;;;;6.40;3.00;;;;;;;7.46;61.81;101748.30;108421;1278;21982;-59
2023/12/28 07:57:37;;;;;;;4.60;2.10;;;;;;;4.74;87.94;101774.05;107999;1277;548333;-60
2023/12/28 08:00:29;;;;;;;5.80;2.30;;;;;;;7.44;69.08;101759.06;108362;1280;21988;-60
2023/12/28 08:02:54;;;;;;;5.10;2.10;;;;;;;7.75;64.90;101762.02;108501;1276;21980;-60
2023/12/28 08:05:20;;;;;;;5.30;2.10;;;;;;;7.91;63.78;101757.83;108543;1281;21992;-60
2023/12/28 08:07:46;;;;;;;4.00;2.00;;;;;;;8.04;63.40;101755.80;108478;1277;22017;-60
2023/12/28 08:25:43;;;;;;;4.50;1.90;;;;;;;5.39;93.74;101730.75;107091;1286;1002946;-60
2023/12/28 08:28:08;;;;;;;5.30;2.20;;;;;;;8.22;74.55;101726.27;108173;1282;23230;-60
2023/12/28 08:30:34;;;;;;;5.00;1.90;;;;;;;8.74;68.39;101722.32;108000;1288;21989;-61
2023/12/28 08:32:59;;;;;;;4.60;1.50;;;;;;;9.06;66.66;101714.08;108019;1286;21990;-60
2023/12/28 08:35:25;;;;;;;4.60;1.80;;;;;;;9.29;65.43;101712.66;108150;1286;22006;-60
2023/12/28 08:37:51;;;;;;;4.90;1.80;;;;;;;9.48;64.39;101710.65;107332;1285;1003342;-60
2023/12/28 08:40:16;;;;;;;5.30;2.10;;;;;;;9.62;63.11;101712.60;108153;1285;22024;-61
2023/12/28 08:42:42;;;;;;;5.30;1.80;;;;;;;9.79;63.13;101706.14;107334;1285;1003193;-60
2023/12/28 08:45:08;;;;;;;4.90;1.90;;;;;;;9.94;63.08;101697.20;108126;1285;21989;-60
2023/12/28 08:47:34;;;;;;;5.30;2.50;;;;;;;10.09;62.06;101694.38;108244;1285;21991;-60
2023/12/28 08:50:00;;;;;;;4.70;1.80;;;;;;;10.21;61.00;101698.54;107451;1285;1003154;-61
2023/12/28 08:52:26;;;;;;;5.20;2.00;;;;;;;10.34;60.48;101695.00;107335;1285;1003484;-60
2023/12/28 08:54:51;;;;;;;4.20;2.10;;;;;;;10.48;59.97;101683.57;108198;1280;23631;-61
2023/12/28 08:57:17;;;;;;;4.90;2.00;;;;;;;10.61;59.35;101682.80;108069;1280;21978;-61
2023/12/28 08:59:43;;;;;;;5.70;2.30;;;;;;;10.75;59.08;101689.42;107345;1280;1003117;-62
2023/12/28 09:02:08;;;;;;;8.00;2.80;;;;;;;10.82;57.79;101676.83;108205;1285;21987;-60
2023/12/28 09:04:34;;;;;;;6.60;2.00;;;;;;;10.90;57.79;101671.96;108075;1280;21987;-61
2023/12/28 09:07:00;;;;;;;6.10;2.20;;;;;;;11.00;57.74;101676.24;107355;1284;1003150;-61
2023/12/28 09:09:25;;;;;;;5.60;2.50;;;;;;;11.11;57.48;101666.66;108074;1281;21986;-61
2023/12/28 09:11:51;;;;;;;4.10;1.90;;;;;;;11.28;57.21;101662.89;108093;1284;22169;-60
2023/12/28 09:14:16;;;;;;;7.10;2.00;;;;;;;11.47;56.26;101665.26;108088;1285;21985;-61
2023/12/28 09:16:43;;;;;;;4.40;1.80;;;;;;;11.60;54.63;101661.45;108086;1285;21986;-61
2023/12/28 09:19:09;;;;;;;4.70;2.00;;;;;;;11.66;52.80;101651.64;108101;1279;21990;-61
2023/12/28 09:21:35;;;;;;;3.80;1.40;;;;;;;11.77;52.94;101651.33;108082;1285;21989;-60
2023/12/28 09:24:00;;;;;;;4.20;2.00;;;;;;;11.77;50.55;101640.77;108050;1280;21991;-61
2023/12/28 09:26:26;;;;;;;4.30;1.70;;;;;;;11.88;52.62;101634.82;108095;1285;21988;-61
2023/12/28 09:28:51;;;;;;;4.60;1.80;;;;;;;11.86;49.95;101634.11;108103;1279;21994;-61
2023/12/28 09:31:17;;;;;;;3.70;1.30;;;;;;;11.94;49.83;101632.89;108131;1274;21956;-60
2023/12/28 09:33:43;;;;;;;4.80;1.40;;;;;;;12.03;49.68;101626.78;108138;1285;22167;-61
2023/12/28 09:36:09;;;;;;;5.40;1.30;;;;;;;12.11;49.73;101624.34;108110;1284;21993;-60
2023/12/28 09:38:35;;;;;;;2.40;1.60;;;;;;;12.23;50.79;101625.23;108091;1283;21985;-58
2023/12/28 09:41:09;;;;;;;3.20;1.30;;;;;;;12.27;49.60;101622.77;108109;1282;21989;-59
2023/12/28 09:43:37;;;;;;;5.30;1.70;;;;;;;12.32;48.84;101622.08;108083;1282;21987;-58
2023/12/28 09:46:11;;;;;;;4.10;1.50;;;;;;;12.42;49.84;101615.55;107414;1285;1003059;-58
2023/12/28 09:48:37;;;;;;;3.50;1.30;;;;;;;12.53;49.45;101607.27;108092;1285;21988;-59
2023/12/28 09:51:03;;;;;;;3.40;1.30;;;;;;;12.65;48.90;101599.52;108107;1285;23390;-59
2023/12/28 09:53:29;;;;;;;3.20;1.20;;;;;;;12.70;47.63;101596.69;108135;1285;22080;-58
2023/12/28 09:55:55;;;;;;;4.50;1.80;;;;;;;12.71;47.04;101590.35;108168;1285;22078;-59
2023/12/28 09:58:21;;;;;;;4.20;1.70;;;;;;;12.64;46.41;101588.94;108129;1285;21988;-59
2023/12/28 10:00:49;;;;;;;3.50;1.70;;;;;;;12.62;47.00;101590.17;108121;1285;21989;-58
2023/12/28 10:03:15;;;;;;;4.20;1.70;;;;;;;12.57;45.76;101596.00;108091;1285;21988;-59
2023/12/28 10:05:41;;;;;;;4.70;1.70;;;;;;;12.55;45.08;101590.73;108177;1285;21987;-60
2023/12/28 10:08:08;;;;;;;3.80;1.90;;;;;;;12.53;44.70;101585.97;108226;1285;21987;-60
2023/12/28 10:10:34;;;;;;;5.10;1.60;;;;;;;12.54;44.74;101579.47;108166;1285;21992;-60
2023/12/28 10:13:00;;;;;;;6.50;1.90;;;;;;;12.47;44.00;101573.65;108096;1285;21990;-59
2023/12/28 10:15:25;;;;;;;3.90;1.60;;;;;;;12.39;43.88;101564.86;108110;1285;21989;-60
2023/12/28 10:17:54;;;;;;;5.00;1.50;;;;;;;12.54;44.74;101561.86;107398;1282;1002326;-60
2023/12/28 10:20:20;;;;;;;4.20;1.20;;;;;;;12.53;44.23;101553.75;108127;1280;21986;-59
2023/12/28 10:22:46;;;;;;;3.20;1.50;;;;;;;12.52;44.23;101549.01;108294;1285;21986;-59
2023/12/28 10:25:11;;;;;;;3.80;1.70;;;;;;;12.52;44.54;101541.43;108048;1285;22159;-59
2023/12/28 10:27:42;;;;;;;3.10;1.20;;;;;;;12.44;44.42;101541.27;108080;1280;21983;-59
2023/12/28 10:30:09;;;;;;;3.00;1.40;;;;;;;12.55;45.19;101538.08;108072;1285;22024;-60
2023/12/28 10:32:45;;;;;;;6.20;1.60;;;;;;;12.57;45.04;101532.98;108144;1286;21992;-59
2023/12/28 10:35:10;;;;;;;4.10;1.20;;;;;;;12.71;45.65;101521.14;108132;1286;21992;-59
2023/12/28 10:37:36;;;;;;;4.50;1.60;;;;;;;12.78;45.64;101522.52;108151;1286;21989;-60
2023/12/28 10:40:06;;;;;;;3.90;1.60;;;;;;;12.84;45.37;101516.70;108007;1286;21992;-60
2023/12/28 10:42:37;;;;;;;2.80;1.50;;;;;;;12.96;45.70;101502.38;108172;1286;21993;-60
2023/12/28 10:45:06;;;;;;;2.80;1.50;;;;;;;13.01;45.42;101496.02;108119;1277;22005;-60
2023/12/28 10:47:41;;;;;;;5.00;1.60;;;;;;;12.95;45.22;101496.75;108162;1279;21983;-60
2023/12/28 10:50:07;;;;;;;4.80;1.90;;;;;;;12.96;45.40;101486.17;108167;1285;22140;-59
2023/12/28 10:52:33;;;;;;;6.20;1.70;;;;;;;13.07;46.11;101480.48;107336;1277;1002822;-60
2023/12/28 10:55:08;;;;;;;3.80;1.60;;;;;;;13.13;46.12;101476.40;108230;1285;21995;-59
2023/12/28 10:57:35;;;;;;;5.30;2.30;;;;;;;13.12;45.58;101477.64;108203;1285;21996;-60
2023/12/28 11:00:11;;;;;;;5.30;2.00;;;;;;;13.19;45.76;101476.20;108109;1285;21992;-60
2023/12/28 11:02:40;;;;;;;7.30;2.70;;;;;;;13.21;45.66;101466.14;108141;1286;21995;-59
2023/12/28 11:05:06;;;;;;;9.00;4.70;;;;;;;13.06;45.23;101462.69;108174;1286;23057;-61
2023/12/28 11:07:32;;;;;;;11.70;6.20;;;;;;;13.02;45.28;101457.25;108178;1286;21993;-61
2023/12/28 11:10:00;;;;;;;6.40;2.30;;;;;;;13.08;45.90;101454.92;108202;1286;22173;-60
2023/12/28 11:12:25;;;;;;;8.60;4.60;;;;;;;13.04;46.05;101450.55;108153;1286;22942;-61
2023/12/28 11:14:52;;;;;;;10.00;5.90;;;;;;;13.03;46.23;101447.37;108008;1286;22017;-61
2023/12/28 11:17:18;;;;;;;10.80;6.00;;;;;;;13.06;46.23;101450.88;107941;1286;22005;-61
2023/12/28 11:19:44;;;;;;;9.50;4.80;;;;;;;13.05;46.29;101450.19;107991;1282;22004;-60
2023/12/28 11:22:09;;;;;;;5.10;2.90;;;;;;;13.03;46.14;101450.38;108204;1285;21990;-59
2023/12/28 11:24:36;;;;;;;4.90;2.00;;;;;;;12.92;46.26;101453.08;108110;1285;21993;-59
2023/12/28 11:27:01;;;;;;;4.50;2.40;;;;;;;13.05;46.63;101444.38;108118;1284;22008;-61
2023/12/28 11:29:29;;;;;;;6.70;3.00;;;;;;;13.03;46.73;101435.73;108189;1285;21986;-59
2023/12/28 11:31:54;;;;;;;4.90;2.80;;;;;;;13.09;46.94;101430.25;108174;1278;21999;-61
2023/12/28 11:34:36;;;;;;;5.60;2.60;;;;;;;13.06;46.83;101430.80;108253;1285;22004;-61
2023/12/28 11:37:07;;;;;;;4.00;2.00;;;;;;;13.12;47.29;101426.70;108144;1280;21994;-59
2023/12/28 11:39:34;;;;;;;4.00;1.80;;;;;;;13.16;47.42;101428.80;108155;1285;22063;-60
2023/12/28 11:42:02;;;;;;;4.50;2.10;;;;;;;13.20;47.51;101431.06;108184;1286;21992;-60
2023/12/28 11:44:30;;;;;;;4.90;2.00;;;;;;;13.12;47.58;101429.52;109394;1280;23739;-62
2023/12/28 11:46:57;;;;;;;3.60;1.60;;;;;;;13.16;47.74;101426.16;108252;1280;22017;-60
2023/12/28 11:49:29;;;;;;;3.00;1.60;;;;;;;13.19;48.10;101423.85;108260;1284;22159;-59
2023/12/28 11:51:56;;;;;;;3.90;1.70;;;;;;;13.22;48.38;101412.73;108149;1285;22035;-59
2023/12/28 11:54:22;;;;;;;4.40;2.00;;;;;;;13.24;48.72;101416.41;108350;1285;22001;-60
2023/12/28 11:56:47;;;;;;;4.00;1.60;;;;;;;13.30;49.05;101408.80;108246;1278;21995;-60